Angus, New Mexico
Current Conditions -  °F | °C
As of 12:55 AM on Tuesday 21 Oct 2014 (Local Time) from KSRR Reporting Station
Overcast Overcast  
Wind Chill: 46°   Ceiling: 6000
Heat Index: 46°   Visibility: 10mi
Dew Point: 46°   Wind: 3mph
Humidity: 100%   Direction: 220°SW
Pressure: 30.24"   Gusts: NA
Location:  33.7233°N, 105.25°W
Report Text: KSRR 210655Z AUTO 22003KT 10SM FEW028 OVC060 08/08 A3024 RMK AO2 P0001
Loading
Personal Weather Stations






























Interactive Weather Map New forecast layout! Learn more

10-Day Weather Forecast

Advertisements
Track Severe Weather on mobile